createdAt,value
2023-03-11T00:02:42.921Z,100913.31
2023-03-11T00:07:45.746Z,100933.66
2023-03-11T00:12:48.396Z,100926.69
2023-03-11T00:17:51.468Z,100928.31
2023-03-11T00:22:55.028Z,100912.56
2023-03-11T00:27:58.599Z,100923.84
2023-03-11T00:33:01.414Z,100919.94
2023-03-11T00:38:06.572Z,100925.16
2023-03-11T00:43:09.246Z,100921.06
2023-03-11T00:48:13.516Z,100914.09
2023-03-11T00:53:16.259Z,100921.91
2023-03-11T00:58:19.227Z,100935.41
2023-03-11T01:03:26.185Z,100949.53
2023-03-11T01:08:29.828Z,100963.53
2023-03-11T01:13:33.624Z,100967.50
2023-03-11T01:18:36.160Z,100960.69
2023-03-11T01:23:40.554Z,100955.84
2023-03-11T01:28:43.453Z,100959.59
2023-03-11T01:33:46.050Z,100971.94
2023-03-11T01:38:48.772Z,100996.28
2023-03-11T01:43:55.210Z,101006.97
2023-03-11T01:49:04.219Z,101009.88
2023-03-11T01:54:21.180Z,100998.53
2023-03-11T01:59:29.800Z,101010.53
2023-03-11T02:04:35.881Z,101016.69
2023-03-11T02:09:39.307Z,101024.50
2023-03-11T02:14:46.368Z,101015.06
2023-03-11T02:25:40.674Z,101017.31
2023-03-11T02:30:45.002Z,101019.91
2023-03-11T02:35:48.064Z,101016.69
2023-03-11T02:40:55.795Z,101012.34
2023-03-11T02:46:00.735Z,101012.34
2023-03-11T02:51:04.132Z,101026.41
2023-03-11T02:56:07.174Z,101020.50
2023-03-11T03:01:10.802Z,101010.06
2023-03-11T03:06:16.077Z,100992.03
2023-03-11T03:11:18.955Z,100988.47
2023-03-11T03:16:22.039Z,100990.91
2023-03-11T03:21:24.675Z,101002.28
2023-03-11T03:26:28.440Z,101006.81
2023-03-11T03:31:32.674Z,101012.97
2023-03-11T03:36:36.844Z,101010.31
2023-03-11T03:41:40.877Z,101003.13
2023-03-11T03:46:44.082Z,101016.72
2023-03-11T03:51:47.857Z,101033.66
2023-03-11T03:57:00.131Z,101065.69
2023-03-11T04:02:04.686Z,101060.16
2023-03-11T04:07:07.847Z,101055.16
2023-03-11T04:12:15.595Z,101070.91
2023-03-11T04:17:18.951Z,101075.31
2023-03-11T04:22:22.315Z,101087.31
2023-03-11T04:27:25.040Z,101073.03
2023-03-11T04:32:28.532Z,101086.00
2023-03-11T04:37:31.280Z,101085.16
2023-03-11T04:42:34.112Z,101080.94
2023-03-11T04:47:37.307Z,101091.69
2023-03-11T04:52:41.274Z,101103.03
2023-03-11T04:57:44.385Z,101109.38
2023-03-11T05:02:49.226Z,101102.50
2023-03-11T05:07:51.932Z,101115.84
2023-03-11T05:12:54.828Z,101123.34
2023-03-11T05:18:00.943Z,101124.97
2023-03-11T05:23:04.788Z,101122.22
2023-03-11T05:28:10.092Z,101126.91
2023-03-11T05:33:17.735Z,101123.53
2023-03-11T05:38:21.382Z,101123.03
2023-03-11T05:43:24.604Z,101120.28
2023-03-11T05:48:30.398Z,101124.50
2023-03-11T05:53:33.300Z,101117.03
2023-03-11T05:58:35.997Z,101124.66
2023-03-11T06:03:40.039Z,101127.59
2023-03-11T06:08:46.189Z,101141.03
2023-03-11T06:13:49.179Z,101140.06
2023-03-11T06:18:52.419Z,101136.63
2023-03-11T06:23:56.436Z,101124.06
2023-03-11T06:29:00.905Z,101124.06
2023-03-11T06:34:05.550Z,101149.56
2023-03-11T06:39:11.716Z,101150.53
2023-03-11T06:44:14.573Z,101152.19
2023-03-11T06:49:18.043Z,101141.66
2023-03-11T06:54:20.967Z,101144.78
2023-03-11T06:59:23.772Z,101163.91
2023-03-11T07:04:27.936Z,101159.84
2023-03-11T07:09:30.753Z,101151.66
2023-03-11T07:14:34.060Z,101152.97
2023-03-11T07:19:37.345Z,101136.91
2023-03-11T07:24:40.984Z,101142.59
2023-03-11T07:29:43.647Z,101138.16
2023-03-11T07:34:46.378Z,101144.66
2023-03-11T07:39:48.952Z,101135.53
2023-03-11T07:44:52.053Z,101130.44
2023-03-11T07:49:56.948Z,101129.19
2023-03-11T07:55:00.034Z,101124.69
2023-03-11T08:00:02.913Z,101119.00
2023-03-11T08:05:25.217Z,101108.56
2023-03-11T08:10:28.032Z,101115.50
2023-03-11T08:15:32.113Z,101114.31
2023-03-11T08:20:34.930Z,101105.78
2023-03-11T08:25:40.145Z,101110.44
2023-03-11T08:30:43.145Z,101107.97
2023-03-11T08:35:45.903Z,101109.97
2023-03-11T08:40:48.883Z,101115.16
2023-03-11T08:45:51.477Z,101109.97
2023-03-11T08:50:54.875Z,101110.88
2023-03-11T08:55:58.499Z,101114.56
2023-03-11T09:01:01.387Z,101118.28
2023-03-11T09:06:06.777Z,101113.16
2023-03-11T09:11:10.654Z,101101.34
2023-03-11T09:16:17.226Z,101097.41
2023-03-11T09:21:20.312Z,101099.63
2023-03-11T09:26:23.127Z,101108.09
2023-03-11T09:31:25.768Z,101101.50
2023-03-11T09:36:28.509Z,101094.13
2023-03-11T09:41:57.396Z,101083.97
2023-03-11T09:52:53.384Z,101081.88
2023-03-11T09:58:00.187Z,101072.25
2023-03-11T10:03:03.924Z,101068.56
2023-03-11T10:08:28.343Z,101062.41
2023-03-11T10:35:04.763Z,101059.53
2023-03-11T10:40:25.213Z,101052.69
2023-03-11T10:45:33.559Z,101065.38
2023-03-11T10:50:50.117Z,101052.22
2023-03-11T10:55:55.271Z,101051.19
2023-03-11T11:01:14.706Z,101052.69
2023-03-11T11:11:36.726Z,101041.88
2023-03-11T11:16:41.063Z,101035.88
2023-03-11T11:21:49.248Z,101027.03
2023-03-11T11:32:26.316Z,101009.63
2023-03-11T11:37:32.294Z,101011.97
2023-03-11T11:42:36.181Z,101013.41
2023-03-11T11:47:42.005Z,101002.09
2023-03-11T11:52:51.587Z,100999.78
2023-03-11T11:57:54.294Z,101003.84
2023-03-11T12:03:26.187Z,101024.56
2023-03-11T12:08:42.974Z,101028.44
2023-03-11T12:19:44.872Z,101030.69
2023-03-11T12:30:27.455Z,101016.63
2023-03-11T12:35:32.957Z,101016.50
2023-03-11T12:46:00.368Z,101020.41
2023-03-11T12:51:03.519Z,101014.16
2023-03-11T12:56:21.945Z,101021.75
2023-03-11T13:12:51.854Z,101009.41
2023-03-11T13:44:13.971Z,101017.16
2023-03-11T13:49:40.606Z,101007.19
2023-03-11T13:54:49.312Z,101003.94
2023-03-11T13:59:54.134Z,101011.84
2023-03-11T14:05:04.801Z,101002.63
2023-03-11T14:15:27.524Z,101012.19
2023-03-11T14:20:30.507Z,101018.56
2023-03-11T14:25:36.496Z,101014.50
2023-03-11T14:30:39.164Z,101012.97
2023-03-11T14:35:42.094Z,101010.72
2023-03-11T14:40:44.781Z,101007.19
2023-03-11T14:45:49.223Z,101015.69
2023-03-11T14:50:54.114Z,101016.38
2023-03-11T14:56:00.402Z,101022.88
2023-03-11T15:06:17.887Z,101007.38
2023-03-11T15:11:25.365Z,101015.22
2023-03-11T15:16:37.544Z,101007.94
2023-03-11T15:21:47.190Z,101018.34
2023-03-11T15:27:07.949Z,101017.03
2023-03-11T15:32:46.846Z,101024.66
2023-03-11T15:38:11.100Z,101037.41
2023-03-11T15:48:29.073Z,101044.59
2023-03-11T15:53:31.872Z,101040.19
2023-03-11T15:58:34.592Z,101047.63
2023-03-11T16:03:39.218Z,101033.47
2023-03-11T16:14:43.022Z,101034.09
2023-03-11T16:19:49.226Z,101038.31
2023-03-11T16:24:54.072Z,101033.56
2023-03-11T16:29:56.910Z,101041.00
2023-03-11T16:34:59.634Z,101036.94
2023-03-11T16:40:02.543Z,101027.63
2023-03-11T16:45:06.888Z,101024.66
2023-03-11T16:50:11.591Z,101019.53
2023-03-11T16:55:14.338Z,101025.28
2023-03-11T17:00:18.314Z,101021.09
2023-03-11T17:05:21.725Z,101023.56
2023-03-11T17:10:25.581Z,101023.03
2023-03-11T17:15:28.434Z,101022.47
2023-03-11T17:20:31.754Z,101024.28
2023-03-11T17:25:34.517Z,101032.41
2023-03-11T17:30:43.204Z,101019.56
2023-03-11T17:35:47.210Z,101022.84
2023-03-11T17:40:49.871Z,101013.25
2023-03-11T17:45:53.991Z,101009.03
2023-03-11T17:50:59.780Z,101007.09
2023-03-11T17:56:03.578Z,101013.88
2023-03-11T18:01:13.561Z,101007.41
2023-03-11T18:06:19.289Z,101001.63
2023-03-11T18:11:25.274Z,101008.97
2023-03-11T18:16:32.124Z,101006.56
2023-03-11T18:21:34.852Z,101000.69
2023-03-11T18:26:37.821Z,101007.75
2023-03-11T18:31:41.575Z,100999.53
2023-03-11T18:36:44.282Z,100993.19
2023-03-11T18:41:46.889Z,100988.66
2023-03-11T18:46:50.803Z,100984.72
2023-03-11T18:51:53.434Z,100981.84
2023-03-11T18:56:56.346Z,100976.75
2023-03-11T19:01:58.919Z,100973.53
2023-03-11T19:07:01.538Z,100971.06
2023-03-11T19:12:04.350Z,100970.03
2023-03-11T19:17:07.000Z,100971.19
2023-03-11T19:22:09.632Z,100971.31
2023-03-11T19:27:12.380Z,100966.09
2023-03-11T19:32:15.020Z,100961.25
2023-03-11T19:37:17.626Z,100953.88
2023-03-11T19:42:21.119Z,100952.75
2023-03-11T19:47:24.181Z,100947.53
2023-03-11T19:52:26.981Z,100950.91
2023-03-11T19:57:29.763Z,100948.94
2023-03-11T20:02:32.444Z,100941.81
2023-03-11T20:07:34.989Z,100947.13
2023-03-11T20:12:37.625Z,100928.97
2023-03-11T20:17:40.220Z,100933.34
2023-03-11T20:22:42.760Z,100933.13
2023-03-11T20:27:45.397Z,100936.00
2023-03-11T20:32:49.092Z,100919.94
2023-03-11T20:37:51.865Z,100914.16
2023-03-11T20:42:54.709Z,100905.25
2023-03-11T20:47:57.500Z,100926.16
2023-03-11T20:53:00.024Z,100914.50
2023-03-11T20:58:02.817Z,100914.03
2023-03-11T21:03:05.576Z,100912.88
2023-03-11T21:08:08.328Z,100917.13
2023-03-11T21:13:11.014Z,100917.56
2023-03-11T21:18:13.941Z,100911.22
2023-03-11T21:23:19.020Z,100904.09
2023-03-11T21:28:21.666Z,100904.63
2023-03-11T21:33:24.569Z,100900.22
2023-03-11T21:38:29.088Z,100895.34
2023-03-11T21:43:31.925Z,100896.97
2023-03-11T21:48:35.133Z,100883.53
2023-03-11T21:53:37.857Z,100876.00
2023-03-11T21:58:41.098Z,100864.06
2023-03-11T22:03:44.170Z,100862.69
2023-03-11T22:08:47.551Z,100856.84
2023-03-11T22:13:54.219Z,100851.47
2023-03-11T22:18:57.792Z,100857.47
2023-03-11T22:24:12.011Z,100881.47
2023-03-11T22:29:16.848Z,100879.91
2023-03-11T22:34:23.082Z,100874.69
2023-03-11T22:39:27.723Z,100881.84
2023-03-11T22:44:34.397Z,100892.72
2023-03-11T22:49:40.688Z,100890.19
2023-03-11T22:54:44.777Z,100887.81
2023-03-11T22:59:50.006Z,100891.66
2023-03-11T23:04:54.038Z,100871.22
2023-03-11T23:09:57.720Z,100856.47
2023-03-11T23:15:15.693Z,100856.16
2023-03-11T23:20:18.393Z,100851.00
2023-03-11T23:25:21.156Z,100847.16
2023-03-11T23:30:24.125Z,100836.16
2023-03-11T23:35:26.802Z,100817.59
2023-03-11T23:40:29.535Z,100808.25
2023-03-11T23:45:32.089Z,100818.34
2023-03-11T23:50:34.622Z,100801.13
2023-03-11T23:55:38.396Z,100809.94
